createdAt,value
2023-01-07T12:54:52.862Z,18.87
2023-01-07T13:01:30.003Z,18.96
2023-01-07T13:04:09.124Z,17.87
2023-01-07T13:06:54.279Z,17.69
2023-01-07T13:10:07.577Z,17.31
2023-01-07T13:12:43.454Z,16.98
2023-01-07T13:15:21.861Z,16.20
2023-01-07T13:17:54.350Z,16.10
2023-01-07T13:20:56.037Z,15.88
2023-01-07T13:23:53.491Z,15.66
2023-01-07T13:26:33.081Z,15.08
2023-01-07T13:29:19.455Z,15.38
2023-01-07T13:32:07.984Z,15.01
2023-01-07T13:35:13.531Z,15.08
2023-01-07T13:38:01.889Z,14.79
2023-01-07T13:40:47.946Z,14.36
2023-01-07T13:43:27.740Z,13.95
2023-01-07T13:46:10.507Z,14.36
2023-01-07T13:48:39.433Z,14.84
2023-01-07T13:51:09.036Z,15.07
2023-01-07T13:53:44.718Z,14.49
2023-01-07T13:56:17.986Z,15.16
2023-01-07T13:58:46.311Z,15.42
2023-01-07T14:01:19.555Z,15.42
2023-01-07T14:04:07.184Z,15.45
2023-01-07T14:06:40.521Z,15.52
2023-01-07T14:09:07.731Z,15.46
2023-01-07T14:11:39.215Z,15.41
2023-01-07T14:14:38.541Z,15.36
2023-01-07T14:17:43.338Z,15.36
2023-01-07T14:20:51.809Z,15.29
2023-01-07T14:23:33.696Z,15.26
2023-01-07T14:26:19.604Z,15.11
2023-01-07T14:28:49.843Z,15.08
2023-01-07T14:31:31.100Z,15.05
2023-01-07T14:34:07.476Z,14.99
2023-01-07T14:37:18.102Z,14.98
2023-01-07T14:39:46.831Z,14.89
2023-01-07T14:42:20.117Z,14.78
2023-01-07T14:44:49.878Z,14.74
2023-01-07T14:47:45.222Z,14.51
2023-01-07T14:50:33.128Z,14.38
2023-01-07T14:53:33.074Z,14.26
2023-01-07T14:56:13.691Z,14.19
2023-01-07T14:58:53.158Z,14.09
2023-01-07T15:01:39.015Z,14.00
2023-01-07T15:04:48.566Z,13.83
2023-01-07T15:07:21.186Z,13.74
2023-01-07T15:10:37.981Z,13.61
2023-01-07T15:13:26.316Z,13.51
2023-01-07T15:16:03.905Z,13.37
2023-01-07T15:18:53.514Z,13.13
2023-01-07T15:21:37.725Z,13.17
2023-01-07T15:24:33.534Z,13.10
2023-01-07T15:27:08.939Z,12.95
2023-01-07T15:29:45.180Z,12.81
2023-01-07T15:32:15.583Z,12.65
2023-01-07T15:34:44.318Z,12.55
2023-01-07T15:37:14.761Z,12.42
2023-01-07T15:39:49.838Z,12.27
2023-01-07T15:42:21.449Z,12.13
2023-01-07T15:44:52.410Z,12.08
2023-01-07T15:47:41.791Z,12.04
2023-01-07T15:50:22.787Z,12.00
2023-01-07T15:53:00.145Z,11.89
2023-01-07T15:55:38.421Z,11.81
2023-01-07T15:58:27.688Z,11.77
2023-01-07T16:00:58.842Z,11.60
2023-01-07T16:03:28.007Z,11.41
2023-01-07T16:05:56.362Z,11.32
2023-01-07T16:08:32.070Z,11.23
2023-01-07T16:11:09.222Z,11.08
2023-01-07T16:13:37.029Z,10.98
2023-01-07T16:16:06.738Z,10.86
2023-01-07T16:18:34.315Z,10.71
2023-01-07T16:21:06.878Z,10.59
2023-01-07T16:23:37.411Z,10.57
2023-01-07T16:26:10.598Z,10.52
2023-01-07T16:29:06.476Z,10.34
2023-01-07T16:31:35.687Z,10.31
2023-01-07T16:34:36.989Z,10.28
2023-01-07T16:37:07.236Z,10.13
2023-01-07T16:39:38.560Z,10.10
2023-01-07T16:42:23.468Z,9.98
2023-01-07T16:44:53.915Z,9.92
2023-01-07T16:47:30.385Z,9.95
2023-01-07T16:50:23.649Z,9.91
2023-01-07T16:52:53.460Z,9.89
2023-01-07T16:55:47.022Z,9.89
2023-01-07T16:58:49.289Z,9.90
2023-01-07T17:01:30.737Z,9.85
2023-01-07T17:04:01.934Z,9.88
2023-01-07T17:06:37.263Z,9.95
2023-01-07T17:09:04.926Z,9.99
2023-01-07T17:11:37.214Z,9.94
2023-01-07T17:14:05.077Z,9.91
2023-01-07T17:16:33.879Z,9.80
2023-01-07T17:19:25.115Z,9.68
2023-01-07T17:21:53.511Z,9.57
2023-01-07T17:24:29.875Z,9.53
2023-01-07T17:27:01.044Z,9.49
2023-01-07T17:29:36.183Z,9.51
2023-01-07T17:32:04.434Z,9.49
2023-01-07T17:34:31.706Z,9.31
2023-01-07T17:36:59.093Z,9.13
2023-01-07T17:39:26.439Z,9.13
2023-01-07T17:42:12.229Z,9.30
2023-01-07T17:44:39.557Z,9.36
2023-01-07T17:47:09.990Z,9.59
2023-01-07T17:49:37.458Z,9.49
2023-01-07T17:52:05.155Z,9.34
2023-01-07T17:54:32.595Z,9.20
2023-01-07T17:56:59.969Z,9.15
2023-01-07T17:59:31.406Z,9.51
2023-01-07T18:02:00.862Z,9.54
2023-01-07T18:04:28.250Z,9.49
2023-01-07T18:06:55.571Z,9.24
2023-01-07T18:09:22.963Z,9.03
2023-01-07T18:12:08.620Z,9.04
2023-01-07T18:14:36.171Z,8.90
2023-01-07T18:17:03.507Z,8.74
2023-01-07T18:19:30.970Z,8.60
2023-01-07T18:21:59.953Z,8.56
2023-01-07T18:24:27.257Z,8.87
2023-01-07T18:26:56.538Z,8.86
2023-01-07T18:29:24.256Z,8.85
2023-01-07T18:31:51.828Z,8.71
2023-01-07T18:34:19.397Z,8.56
2023-01-07T18:36:46.995Z,8.44
2023-01-07T18:39:19.359Z,8.53
2023-01-07T18:41:50.361Z,8.48
2023-01-07T18:44:19.504Z,8.42
2023-01-07T18:46:46.985Z,8.80
2023-01-07T18:49:14.839Z,8.70
2023-01-07T18:51:42.149Z,8.54
2023-01-07T18:54:09.513Z,8.50
2023-01-07T18:56:36.930Z,8.46
2023-01-07T18:59:05.172Z,8.29
2023-01-07T19:01:32.597Z,8.33
2023-01-07T19:04:00.138Z,8.21
2023-01-07T19:06:28.628Z,8.11
2023-01-07T19:08:57.297Z,8.06
2023-01-07T19:11:24.747Z,7.92
2023-01-07T19:13:52.028Z,7.88
2023-01-07T19:16:19.464Z,7.80
2023-01-07T19:18:46.898Z,7.75
2023-01-07T19:21:14.704Z,7.68
2023-01-07T19:23:42.206Z,7.71
2023-01-07T19:26:11.269Z,7.61
2023-01-07T19:28:38.852Z,7.57
2023-01-07T19:31:11.003Z,7.55
2023-01-07T19:33:39.948Z,7.48
2023-01-07T19:36:10.596Z,7.42
2023-01-07T19:38:42.715Z,7.46
2023-01-07T19:41:12.463Z,7.46
2023-01-07T19:43:40.365Z,7.48
2023-01-07T19:46:08.862Z,7.63
2023-01-07T19:48:36.430Z,7.59
2023-01-07T19:51:05.609Z,7.56
2023-01-07T19:53:34.767Z,7.51
2023-01-07T19:56:04.250Z,7.43
2023-01-07T19:58:32.829Z,7.40
2023-01-07T20:01:12.005Z,7.29
2023-01-07T20:03:39.553Z,7.32
2023-01-07T20:06:10.577Z,7.21
2023-01-07T20:08:38.833Z,7.22
2023-01-07T20:11:06.980Z,7.16
2023-01-07T20:13:36.114Z,7.00
2023-01-07T20:16:08.962Z,7.02
2023-01-07T20:18:41.628Z,7.15
2023-01-07T20:21:10.162Z,7.05
2023-01-07T20:23:39.196Z,7.03
2023-01-07T20:26:10.407Z,6.96
2023-01-07T20:28:37.992Z,6.95
2023-01-07T20:31:11.259Z,6.90
2023-01-07T20:33:38.704Z,7.09
2023-01-07T20:36:11.721Z,7.10
2023-01-07T20:38:39.338Z,6.69
2023-01-07T20:41:08.265Z,6.26
2023-01-07T20:43:37.266Z,5.96
2023-01-07T20:46:06.677Z,5.83
2023-01-07T20:48:34.834Z,5.82
2023-01-07T20:51:09.822Z,5.89
2023-01-07T20:53:37.596Z,5.85
2023-01-07T20:56:06.300Z,5.81
2023-01-07T20:58:35.211Z,5.91
2023-01-07T21:01:07.833Z,6.84
2023-01-07T21:03:36.350Z,6.62
2023-01-07T21:06:03.792Z,6.58
2023-01-07T21:08:31.351Z,6.66
2023-01-07T21:10:58.742Z,6.79
2023-01-07T21:13:26.613Z,6.74
2023-01-07T21:15:53.992Z,6.68
2023-01-07T21:18:21.475Z,6.76
2023-01-07T21:20:48.824Z,6.97
2023-01-07T21:23:16.317Z,6.95
2023-01-07T21:25:48.277Z,6.89
2023-01-07T21:28:16.349Z,6.90
2023-01-07T21:30:44.028Z,6.89
2023-01-07T21:33:11.608Z,6.80
2023-01-07T21:35:42.814Z,6.85
2023-01-07T21:38:10.511Z,6.83
2023-01-07T21:40:39.752Z,6.79
2023-01-07T21:43:07.185Z,6.81
2023-01-07T21:45:34.550Z,6.74
2023-01-07T21:48:01.871Z,6.66
2023-01-07T21:50:29.309Z,6.61
2023-01-07T21:52:56.763Z,6.67
2023-01-07T21:55:24.176Z,6.61
2023-01-07T21:57:51.615Z,6.60
2023-01-07T22:00:19.849Z,6.55
2023-01-07T22:02:47.532Z,6.45
2023-01-07T22:05:14.831Z,6.43
2023-01-07T22:07:42.501Z,6.36
2023-01-07T22:10:10.332Z,6.34
2023-01-07T22:12:37.679Z,6.25
2023-01-07T22:15:05.408Z,6.31
2023-01-07T22:17:32.806Z,6.24
2023-01-07T22:20:00.364Z,6.19
2023-01-07T22:22:27.718Z,6.14
2023-01-07T22:24:55.097Z,6.03
2023-01-07T22:27:22.522Z,6.10
2023-01-07T22:29:49.887Z,6.11
2023-01-07T22:32:17.248Z,6.14
2023-01-07T22:34:44.664Z,6.17
2023-01-07T22:37:17.157Z,6.15
2023-01-07T22:39:47.268Z,6.12
2023-01-07T22:42:19.548Z,6.07
2023-01-07T22:44:58.056Z,6.06
2023-01-07T22:47:30.203Z,6.03
2023-01-07T22:49:59.333Z,6.01
2023-01-07T22:52:26.912Z,5.96
2023-01-07T22:54:54.420Z,5.89
2023-01-07T22:57:22.007Z,5.90
2023-01-07T22:59:49.226Z,5.87
2023-01-07T23:02:16.661Z,5.81
2023-01-07T23:04:44.052Z,5.91
2023-01-07T23:07:11.397Z,5.87
2023-01-07T23:09:41.204Z,5.94
2023-01-07T23:12:11.288Z,6.01
2023-01-07T23:14:38.810Z,5.94
2023-01-07T23:17:06.147Z,6.01
2023-01-07T23:19:33.532Z,5.96
2023-01-07T23:22:00.925Z,6.00
2023-01-07T23:24:28.291Z,5.87
2023-01-07T23:26:57.162Z,5.91
2023-01-07T23:29:24.631Z,5.84
2023-01-07T23:31:52.049Z,5.87
2023-01-07T23:34:19.826Z,5.86
2023-01-07T23:36:47.151Z,6.03
2023-01-07T23:39:14.629Z,6.19
2023-01-07T23:41:41.854Z,5.90
2023-01-07T23:44:09.077Z,5.58
2023-01-07T23:46:36.419Z,5.22
2023-01-07T23:49:03.777Z,4.94
2023-01-07T23:51:31.189Z,4.75
2023-01-07T23:53:58.510Z,4.67
2023-01-07T23:56:25.832Z,4.68
2023-01-07T23:58:53.445Z,4.65
